Terminal Aerodrome Forecast
Issued by NWS

Home | Current Version | Previous Version | Text Only | Print | Product List | Glossary On
Versions: 1 2 3 4 5 6 7 8 9 10 11 12 13 14 15 16 17 18 19 20 21 22 23
000
FTUS45 KBOU 191745
TAFBJC
TAF
KBJC 191745Z 1918/2018 VRB05KT P6SM FEW120 BKN150 BKN220
     FM192000 13010KT P6SM SCT120 BKN220
     FM200000 19010G20KT P6SM SCT100 BKN120 BKN220
     FM200400 29017G33KT P6SM SCT090 BKN140 BKN220
     FM200700 30012KT P6SM SCT220
     FM201500 VRB06KT P6SM FEW220=

USA.gov is the U.S. government's official web portal to all federal, state and local government web resources and services.